AirNav   Pilot Hours Calculator
 
 698 users online  

OR81 Olinger Airpark
Hillsboro, Oregon, USA

GOING TO HILLSBORO?


FAA INFORMATION EFFECTIVE 22 APRIL 2021

Location

FAA Identifier: OR81
Lat/Long: 45-33-11.9200N 123-01-16.0400W
45-33.198667N 123-01.267333W
45.5533111,-123.0211222
(estimated)
Elevation: 185 ft. / 56 m (estimated)
Variation: 19E (1985)
From city: 3 miles NW of HILLSBORO, OR
Time zone: UTC -7 (UTC -8 during Standard Time)
Zip code: 97124

Airport Operations

Airport use: Private use. Permission required prior to landing
Activation date: 12/1964
Control tower: no
ARTCC: SEATTLE CENTER
FSS: MC MINNVILLE FLIGHT SERVICE STATION
Attendance: UNATNDD
Wind indicator: yes
Segmented circle: no
Lights: SS-SR

Airport Communications

WX ASOS at HIO (3 nm E): PHONE 503-615-4314
WX ASOS at SPB (15 nm NE): 135.875 (503-543-6401)
WX ASOS at VUO (16 nm E): 135.125 (360-696-1280)
WX ASOS at PDX (18 nm E): PHONE (503) 493-7687

Nearby radio navigation aids

VOR radial/distance  VOR name  Freq  Var
UBGr330/12.1NEWBERG VOR/DME117.4021E
BTGr216/21.5BATTLE GROUND VORTAC116.6021E

 
NDB name  Hdg/Dist  Freq  Var  ID
BANKS151/4.735616EPND .--. -. -..

Airport Services

Airframe service: NONE
Powerplant service: NONE

Runway Information

Runway 7/25

Dimensions: 2000 x 80 ft. / 610 x 24 m
Surface: turf/gravel
Runway edge lights: low intensity
RUNWAY 7  RUNWAY 25
Traffic pattern: leftleft
Obstructions: none100 ft. trees, 2000 ft. from runway

Airport Ownership and Management from official FAA records

Ownership: Privately-owned
Owner: OLINGER AIRPARK ASSOCIATION
33400 N.W. BAGLEY RD, OLINGER AIRPARK
HILLSBORO, OR 97124
Phone 503-640-5186
Manager: JOHN BOUTEA
33400 N.W. BAGLEY RD, OLINGER AIRPARK
HILLSBORO, OR 97124
Phone 503-640-5186

Airport Operational Statistics

Aircraft based on the field: 13
Single engine airplanes: 13
    

Additional Remarks

FOR CD CTC PORTLAND APCH AT 503-493-7545.

Instrument Procedures

There are no published instrument procedures at OR81.

Some nearby airports with instrument procedures:

KHIO - Portland-Hillsboro Airport (3 nm E)
KSPB - Scappoose Industrial Airpark (15 nm NE)
KVUO - Pearson Field Airport (16 nm E)
KPDX - Portland International Airport (18 nm E)
KUAO - Aurora State Airport (21 nm SE)
 
Loc | Ops | Rwys | IFR | FBO | Links
Com | Nav | Svcs | Stats | Notes
Area around OR81 (Olinger Airpark)
 
Road maps at: MapQuest Bing Google
 
Aerial photo
WARNING: Photo may not be current or correct
Aerial photo of OR81 (Olinger Airpark)
Do you have a better or more recent aerial photo of Olinger Airpark that you would like to share? If so, please send us your photo.

 
Sectional chart

 
Airport distance calculator
Flying to Olinger Airpark? Find the distance to fly.

From to OR81

Sunrise and sunset
Times for 16-May-2021
 Local
(UTC-7)
 Zulu
(UTC)
Morning civil twilight05:0612:06
Sunrise05:4112:41
Sunset20:3603:36
Evening civil twilight21:1104:11

Current date and time
Zulu (UTC)  16-May-2021 12:16:44
Local (UTC-7)  16-May-2021 05:16:44
 
METAR
KHIO 
3nm E 
161153Z 00000KT 10SM CLR 08/05 A2998 RMK AO2 SLP150 T00780050 10139 20078 53001
KSPB 
14nm NE 
161153Z AUTO 34003KT 10SM CLR 11/07 A2999 RMK AO2 SLP154 T01110072 10178 20094 53005
KVUO 
16nm E 
161153Z AUTO 00000KT 10SM CLR 11/07 A2999 RMK AO2 SLP155 T01110067 10189 20094 53003
KPDX 
18nm E 
161153Z 32004KT 10SM CLR 12/08 A3000 RMK AO2 SLP156 T01170078 10183 20117 53003
TAF
KHIO 
3nm E 
161125Z 1612/1712 30003KT P6SM SKC FM162300 33011KT P6SM SKC FM170600 32007KT P6SM SCT250
KPDX 
18nm E 
161125Z 1612/1712 32005KT P6SM SKC TEMPO 1614/1617 SCT010 FM162100 33008KT P6SM SKC FM170000 32011G18KT P6SM SKC FM170400 32007KT P6SM SCT250
NOTAMs
Click for the latest NOTAMs
NOTAMs are issued by the DoD/FAA and will open in a separate window not controlled by AirNav.

 

 
 

Would you like to see your business listed on this page?

 If your business provides an interesting product or service to pilots, flight crews, aircraft, or users of the Olinger Airpark, you should consider listing it here.  To start the listing process, click on the button below
 
Add a business
 

Other Pages about Olinger Airpark

Update a link
 
Copyright © AirNav, LLC. All rights reserved. Privacy Policy  Contact